createdAt,value
2019-06-08T00:00:54.302Z,59.70
2019-06-08T00:01:54.305Z,59.81
2019-06-08T00:02:54.285Z,60.01
2019-06-08T00:03:54.282Z,59.91
2019-06-08T00:04:54.302Z,59.81
2019-06-08T00:05:54.260Z,59.91
2019-06-08T00:06:54.235Z,60.01
2019-06-08T00:07:54.222Z,60.01
2019-06-08T00:08:54.224Z,59.91
2019-06-08T00:09:54.212Z,60.11
2019-06-08T00:10:54.192Z,60.11
2019-06-08T00:11:54.171Z,60.31
2019-06-08T00:12:54.152Z,60.21
2019-06-08T00:13:54.242Z,60.11
2019-06-08T00:14:54.188Z,60.31
2019-06-08T00:15:54.170Z,60.42
2019-06-08T00:16:54.120Z,60.42
2019-06-08T00:17:54.122Z,60.52
2019-06-08T00:18:54.119Z,60.52
2019-06-08T00:19:54.115Z,60.52
2019-06-08T00:20:54.087Z,60.52
2019-06-08T00:21:54.063Z,60.52
2019-06-08T00:22:54.054Z,60.52
2019-06-08T00:23:54.065Z,60.62
2019-06-08T00:24:54.073Z,60.72
2019-06-08T00:25:54.012Z,60.62
2019-06-08T00:26:54.017Z,60.72
2019-06-08T00:27:54.022Z,60.52
2019-06-08T00:28:54.005Z,60.62
2019-06-08T00:29:54.002Z,60.72
2019-06-08T00:30:53.970Z,60.72
2019-06-08T00:31:53.980Z,60.72
2019-06-08T00:32:53.932Z,60.62
2019-06-08T00:33:53.940Z,60.72
2019-06-08T00:34:53.934Z,60.72
2019-06-08T00:35:54.003Z,60.82
2019-06-08T00:36:53.891Z,60.72
2019-06-08T00:37:53.912Z,60.72
2019-06-08T00:38:53.882Z,60.82
2019-06-08T00:39:53.889Z,60.89
2019-06-08T00:40:53.874Z,60.69
2019-06-08T00:41:53.843Z,60.69
2019-06-08T00:42:53.833Z,60.69
2019-06-08T00:43:53.845Z,60.69
2019-06-08T00:44:53.957Z,60.69
2019-06-08T00:45:53.834Z,60.79
2019-06-08T00:46:53.802Z,60.69
2019-06-08T00:47:53.811Z,60.79
2019-06-08T00:48:53.762Z,60.69
2019-06-08T00:49:53.753Z,60.69
2019-06-08T00:50:53.740Z,60.79
2019-06-08T00:51:53.735Z,60.79
2019-06-08T00:52:53.741Z,60.79
2019-06-08T00:53:53.847Z,60.79
2019-06-08T00:54:53.701Z,60.79
2019-06-08T00:55:53.693Z,60.89
2019-06-08T00:56:53.670Z,60.79
2019-06-08T00:57:53.798Z,60.79
2019-06-08T00:58:53.675Z,60.79
2019-06-08T00:59:53.645Z,60.79
2019-06-08T01:00:53.630Z,60.89
2019-06-08T01:01:53.611Z,60.77
2019-06-08T01:02:53.607Z,60.86
2019-06-08T01:03:53.616Z,60.86
2019-06-08T01:04:53.605Z,60.77
2019-06-08T01:05:53.586Z,60.86
2019-06-08T01:06:53.562Z,60.86
2019-06-08T01:07:53.553Z,60.86
2019-06-08T01:08:53.585Z,60.86
2019-06-08T01:09:53.550Z,60.77
2019-06-08T01:10:53.525Z,60.77
2019-06-08T01:11:53.506Z,60.77
2019-06-08T01:12:53.502Z,60.86
2019-06-08T01:13:53.543Z,60.97
2019-06-08T01:14:53.482Z,60.77
2019-06-08T01:15:53.494Z,60.77
2019-06-08T01:16:53.454Z,60.97
2019-06-08T01:18:02.840Z,60.86
2019-06-08T01:18:54.433Z,60.97
2019-06-08T01:19:53.424Z,60.77
2019-06-08T01:20:53.441Z,60.77
2019-06-08T01:21:53.399Z,60.77
2019-06-08T01:22:53.389Z,60.57
2019-06-08T01:23:53.371Z,60.23
2019-06-08T01:24:53.361Z,60.03
2019-06-08T01:25:53.364Z,60.03
2019-06-08T01:26:53.344Z,60.23
2019-06-08T01:27:53.333Z,60.03
2019-06-08T01:28:53.339Z,58.81
2019-06-08T01:29:53.313Z,58.00
2019-06-08T01:30:53.320Z,57.50
2019-06-08T01:31:53.282Z,56.48
2019-06-08T01:32:53.274Z,56.69
2019-06-08T01:33:53.262Z,55.37
2019-06-08T01:34:53.263Z,54.97
2019-06-08T01:35:53.252Z,54.05
2019-06-08T01:36:53.254Z,54.16
2019-06-08T01:37:53.238Z,53.85
2019-06-08T01:38:53.203Z,53.34
2019-06-08T01:39:53.193Z,53.14
2019-06-08T01:40:53.196Z,52.74
2019-06-08T01:41:53.237Z,52.33
2019-06-08T01:42:53.176Z,52.54
2019-06-08T01:43:53.154Z,52.54
2019-06-08T01:44:53.144Z,52.44
2019-06-08T01:45:53.153Z,52.54
2019-06-08T01:46:53.142Z,52.44
2019-06-08T01:47:53.110Z,52.44
2019-06-08T01:48:53.092Z,52.44
2019-06-08T01:49:53.099Z,52.54
2019-06-08T01:50:53.083Z,52.44
2019-06-08T01:51:53.120Z,52.23
2019-06-08T01:52:53.058Z,52.23
2019-06-08T01:53:53.044Z,52.44
2019-06-08T01:54:53.022Z,52.44
2019-06-08T01:55:53.013Z,52.54
2019-06-08T01:56:53.035Z,52.13
2019-06-08T01:57:53.006Z,52.23
2019-06-08T01:58:52.988Z,52.03
2019-06-08T01:59:52.978Z,51.83
2019-06-08T02:00:52.954Z,52.03
2019-06-08T02:01:52.973Z,52.03
2019-06-08T02:02:52.948Z,51.93
2019-06-08T02:03:52.957Z,51.93
2019-06-08T02:04:52.947Z,51.53
2019-06-08T02:05:52.904Z,51.42
2019-06-08T02:06:52.934Z,51.42
2019-06-08T02:07:52.881Z,51.22
2019-06-08T02:08:52.873Z,51.12
2019-06-08T02:09:52.902Z,51.12
2019-06-08T02:10:52.927Z,51.12
2019-06-08T02:11:52.883Z,51.14
2019-06-08T02:12:52.833Z,50.92
2019-06-08T02:13:52.861Z,50.94
2019-06-08T02:14:52.817Z,50.74
2019-06-08T02:15:52.797Z,50.84
2019-06-08T02:16:52.828Z,50.74
2019-06-08T02:17:52.782Z,50.74
2019-06-08T02:18:52.763Z,50.84
2019-06-08T02:19:52.791Z,50.94
2019-06-08T02:20:52.763Z,50.94
2019-06-08T02:21:52.764Z,50.84
2019-06-08T02:22:52.734Z,50.84
2019-06-08T02:23:52.755Z,50.94
2019-06-08T02:24:52.708Z,51.04
2019-06-08T02:25:52.694Z,51.04
2019-06-08T02:26:52.733Z,51.04
2019-06-08T02:27:52.701Z,51.04
2019-06-08T02:28:52.657Z,51.14
2019-06-08T02:29:52.682Z,51.14
2019-06-08T02:30:52.638Z,51.14
2019-06-08T02:31:52.650Z,51.25
2019-06-08T02:32:52.629Z,51.25
2019-06-08T02:33:52.604Z,51.22
2019-06-08T02:34:52.595Z,51.12
2019-06-08T02:35:52.607Z,51.12
2019-06-08T02:36:52.574Z,51.22
2019-06-08T02:37:52.574Z,51.22
2019-06-08T02:38:52.536Z,51.22
2019-06-08T02:39:52.527Z,51.12
2019-06-08T02:40:52.514Z,51.25
2019-06-08T02:41:52.516Z,51.14
2019-06-08T02:42:52.523Z,51.25
2019-06-08T02:43:52.485Z,51.35
2019-06-08T02:44:52.463Z,51.35
2019-06-08T02:45:52.477Z,51.35
2019-06-08T02:46:52.453Z,51.55
2019-06-08T02:47:52.466Z,51.45
2019-06-08T02:49:03.126Z,51.45
2019-06-08T02:49:53.417Z,51.65
2019-06-08T02:50:52.429Z,51.65
2019-06-08T02:51:52.395Z,51.65
2019-06-08T02:52:52.402Z,51.45
2019-06-08T02:53:52.370Z,51.55
2019-06-08T02:54:52.375Z,51.65
2019-06-08T02:55:52.349Z,51.65
2019-06-08T02:56:52.408Z,51.75
2019-06-08T02:57:52.345Z,51.04
2019-06-08T02:58:52.342Z,51.04
2019-06-08T02:59:52.332Z,51.25
2019-06-08T03:00:52.296Z,51.14
2019-06-08T03:01:52.291Z,51.14
2019-06-08T03:02:52.300Z,51.25
2019-06-08T03:03:52.254Z,51.25
2019-06-08T03:04:52.245Z,51.25
2019-06-08T03:05:52.244Z,51.45
2019-06-08T03:06:52.234Z,51.25
2019-06-08T03:07:52.234Z,51.25
2019-06-08T03:08:52.248Z,51.25
2019-06-08T03:09:52.201Z,51.25
2019-06-08T03:10:52.241Z,51.35
2019-06-08T03:11:52.214Z,51.45
2019-06-08T03:12:52.226Z,51.35
2019-06-08T03:13:52.166Z,51.37
2019-06-08T03:14:52.165Z,51.45
2019-06-08T03:15:52.197Z,51.37
2019-06-08T03:16:52.125Z,51.37
2019-06-08T03:17:52.150Z,51.47
2019-06-08T03:18:52.095Z,51.67
2019-06-08T03:19:52.113Z,51.57
2019-06-08T03:20:52.067Z,51.78
2019-06-08T03:21:52.064Z,51.78
2019-06-08T03:22:52.075Z,51.57
2019-06-08T03:23:52.074Z,51.67
2019-06-08T03:24:52.042Z,51.55
2019-06-08T03:25:53.436Z,51.45
2019-06-08T03:26:52.006Z,51.37
2019-06-08T03:27:52.012Z,51.57
2019-06-08T03:28:52.003Z,51.67
2019-06-08T03:29:51.976Z,51.78
2019-06-08T03:30:54.384Z,51.78
2019-06-08T03:31:56.313Z,51.67
2019-06-08T03:32:56.269Z,51.67
2019-06-08T03:33:55.854Z,51.67
2019-06-08T03:34:56.434Z,51.57
2019-06-08T03:35:57.881Z,51.78
2019-06-08T03:36:56.742Z,51.78
2019-06-08T03:37:51.874Z,51.67
2019-06-08T03:38:51.886Z,51.98
2019-06-08T03:39:51.862Z,51.88
2019-06-08T03:40:51.855Z,52.08
2019-06-08T03:41:51.844Z,52.08
2019-06-08T03:42:53.342Z,52.08
2019-06-08T03:43:51.839Z,51.98
2019-06-08T03:44:51.823Z,52.08
2019-06-08T03:45:51.794Z,52.08
2019-06-08T03:46:51.775Z,52.28
2019-06-08T03:47:51.768Z,52.28
2019-06-08T03:48:51.794Z,52.18
2019-06-08T03:49:57.131Z,52.18
2019-06-08T03:50:52.769Z,52.18
2019-06-08T03:51:51.725Z,52.28
2019-06-08T03:52:51.716Z,52.18
2019-06-08T03:53:51.747Z,52.28
2019-06-08T03:54:51.705Z,52.48
2019-06-08T03:55:51.702Z,52.48
2019-06-08T03:56:51.671Z,52.39
2019-06-08T03:57:51.654Z,52.59
2019-06-08T03:58:51.678Z,52.39
2019-06-08T03:59:51.656Z,52.28
2019-06-08T04:00:51.635Z,52.48
2019-06-08T04:01:51.615Z,52.59
2019-06-08T04:02:51.602Z,52.59
2019-06-08T04:03:51.585Z,52.48
2019-06-08T04:04:51.614Z,52.69
2019-06-08T04:05:51.591Z,52.59
2019-06-08T04:06:51.560Z,52.79
2019-06-08T04:07:51.540Z,52.79
2019-06-08T04:08:51.545Z,52.69
2019-06-08T04:09:51.551Z,52.79
2019-06-08T04:10:51.528Z,52.79
2019-06-08T04:11:51.563Z,52.79
2019-06-08T04:12:51.541Z,52.89
2019-06-08T04:13:51.492Z,52.89
2019-06-08T04:14:51.565Z,52.89
2019-06-08T04:15:51.455Z,52.89
2019-06-08T04:16:51.436Z,53.09
2019-06-08T04:17:51.448Z,53.09
2019-06-08T04:18:51.416Z,53.09
2019-06-08T04:20:09.713Z,53.09
2019-06-08T04:20:52.425Z,52.69
2019-06-08T04:21:51.421Z,52.89
2019-06-08T04:22:51.376Z,52.89
2019-06-08T04:23:51.376Z,52.99
2019-06-08T04:24:51.383Z,52.99
2019-06-08T04:25:51.377Z,52.99
2019-06-08T04:26:51.334Z,53.12
2019-06-08T04:27:51.335Z,52.99
2019-06-08T04:28:51.305Z,52.89
2019-06-08T04:29:51.339Z,52.99
2019-06-08T04:30:51.339Z,52.48
2019-06-08T04:31:51.294Z,52.59
2019-06-08T04:32:51.313Z,52.71
2019-06-08T04:33:51.265Z,52.79
2019-06-08T04:34:51.275Z,52.99
2019-06-08T04:35:51.255Z,52.89
2019-06-08T04:36:51.236Z,52.89
2019-06-08T04:37:51.226Z,52.89
2019-06-08T04:38:51.247Z,52.99
2019-06-08T04:39:51.215Z,52.89
2019-06-08T04:40:51.178Z,53.09
2019-06-08T04:41:51.177Z,53.09
2019-06-08T04:42:51.228Z,53.09
2019-06-08T04:43:51.155Z,53.09
2019-06-08T04:44:51.145Z,53.19
2019-06-08T04:45:51.116Z,53.09
2019-06-08T04:46:51.144Z,53.09
2019-06-08T04:47:51.106Z,53.19
2019-06-08T04:48:51.105Z,53.30
2019-06-08T04:49:51.119Z,53.40
2019-06-08T04:50:51.087Z,53.30
2019-06-08T04:51:51.099Z,53.80
2019-06-08T04:52:51.054Z,53.50
2019-06-08T04:53:51.051Z,53.30
2019-06-08T04:54:51.026Z,52.99
2019-06-08T04:55:51.084Z,53.09
2019-06-08T04:56:51.006Z,53.40
2019-06-08T04:57:51.085Z,53.30
2019-06-08T04:58:51.498Z,53.40
2019-06-08T04:59:50.983Z,53.30
2019-06-08T05:00:51.160Z,53.40
2019-06-08T05:01:50.936Z,53.40
2019-06-08T05:02:51.339Z,53.30
2019-06-08T05:03:50.947Z,53.30
2019-06-08T05:04:50.979Z,53.30
2019-06-08T05:05:50.910Z,53.09
2019-06-08T05:06:50.896Z,53.19
2019-06-08T05:07:50.890Z,53.09
2019-06-08T05:08:50.887Z,52.99
2019-06-08T05:09:50.878Z,53.30
2019-06-08T05:10:50.877Z,53.40
2019-06-08T05:11:50.830Z,53.50
2019-06-08T05:12:50.816Z,53.91
2019-06-08T05:13:50.813Z,53.60
2019-06-08T05:14:50.799Z,53.40
2019-06-08T05:15:50.809Z,53.40
2019-06-08T05:16:50.789Z,53.60
2019-06-08T05:17:50.769Z,53.60
2019-06-08T05:18:50.773Z,53.30
2019-06-08T05:19:50.747Z,53.40
2019-06-08T05:20:51.769Z,53.40
2019-06-08T05:21:50.729Z,53.60
2019-06-08T05:22:50.697Z,53.70
2019-06-08T05:23:58.208Z,53.80
2019-06-08T05:24:51.703Z,53.80
2019-06-08T05:25:50.735Z,53.91
2019-06-08T05:26:50.776Z,54.00
2019-06-08T05:27:50.667Z,53.80
2019-06-08T05:28:50.709Z,53.60
2019-06-08T05:29:50.643Z,53.60
2019-06-08T05:30:50.649Z,53.60
2019-06-08T05:31:50.606Z,53.60
2019-06-08T05:32:50.607Z,53.72
2019-06-08T05:33:50.586Z,53.83
2019-06-08T05:34:50.573Z,53.93
2019-06-08T05:35:50.630Z,54.03
2019-06-08T05:36:50.558Z,54.24
2019-06-08T05:37:50.576Z,54.24
2019-06-08T05:38:50.535Z,54.03
2019-06-08T05:39:50.526Z,54.00
2019-06-08T05:40:50.515Z,54.00
2019-06-08T05:41:50.518Z,54.21
2019-06-08T05:42:50.483Z,54.11
2019-06-08T05:43:50.466Z,54.21
2019-06-08T05:44:50.476Z,54.21
2019-06-08T05:45:50.455Z,54.21
2019-06-08T05:46:50.463Z,54.31
2019-06-08T05:47:50.427Z,54.31
2019-06-08T05:48:50.554Z,54.31
2019-06-08T05:49:50.407Z,54.51
2019-06-08T05:51:02.743Z,54.31
2019-06-08T05:51:51.403Z,54.41
2019-06-08T05:52:50.451Z,54.51
2019-06-08T05:53:50.366Z,54.31
2019-06-08T05:54:50.356Z,54.31
2019-06-08T05:55:50.347Z,54.31
2019-06-08T05:56:50.560Z,54.21
2019-06-08T05:57:50.590Z,54.21
2019-06-08T05:58:50.514Z,54.31
2019-06-08T05:59:50.482Z,54.31
2019-06-08T06:00:50.634Z,54.31
2019-06-08T06:01:50.977Z,54.21
2019-06-08T06:02:58.015Z,54.21
2019-06-08T06:03:58.036Z,54.31
2019-06-08T06:04:52.175Z,54.41
2019-06-08T06:05:50.772Z,54.71
2019-06-08T06:06:50.924Z,54.61
2019-06-08T06:07:51.238Z,54.51
2019-06-08T06:08:50.975Z,54.51
2019-06-08T06:09:51.129Z,54.69
2019-06-08T06:10:51.359Z,54.28
2019-06-08T06:11:51.181Z,54.08
2019-06-08T06:12:51.178Z,54.28
2019-06-08T06:13:51.337Z,54.28
2019-06-08T06:14:51.250Z,54.31
2019-06-08T06:15:51.709Z,54.41
2019-06-08T06:16:51.212Z,54.41
2019-06-08T06:17:51.428Z,54.71
2019-06-08T06:18:52.218Z,54.49
2019-06-08T06:19:51.392Z,54.38
2019-06-08T06:20:51.408Z,54.69
2019-06-08T06:21:51.401Z,54.79
2019-06-08T06:22:52.469Z,54.59
2019-06-08T06:23:51.403Z,54.59
2019-06-08T06:24:50.046Z,54.59
2019-06-08T06:25:50.118Z,54.69
2019-06-08T06:26:50.465Z,54.49
2019-06-08T06:27:50.029Z,54.46
2019-06-08T06:28:50.036Z,54.16
2019-06-08T06:29:50.024Z,54.36
2019-06-08T06:30:50.246Z,54.26
2019-06-08T06:31:50.097Z,54.36
2019-06-08T06:32:50.255Z,54.46
2019-06-08T06:33:50.133Z,54.56
2019-06-08T06:34:50.030Z,54.69
2019-06-08T06:35:50.047Z,54.66
2019-06-08T06:36:49.968Z,54.36
2019-06-08T06:37:52.031Z,54.66
2019-06-08T06:38:50.175Z,54.86
2019-06-08T06:39:50.140Z,54.86
2019-06-08T06:40:50.093Z,54.46
2019-06-08T06:41:49.997Z,55.27
2019-06-08T06:42:50.079Z,54.97
2019-06-08T06:43:50.396Z,54.86
2019-06-08T06:44:50.586Z,54.36
2019-06-08T06:45:50.008Z,54.66
2019-06-08T06:46:50.207Z,54.59
2019-06-08T06:47:50.444Z,54.66
2019-06-08T06:48:50.380Z,54.86
2019-06-08T06:49:50.645Z,54.86
2019-06-08T06:50:50.417Z,54.66
2019-06-08T06:51:50.536Z,54.56
2019-06-08T06:52:50.777Z,54.76
2019-06-08T06:53:50.858Z,54.86
2019-06-08T06:54:51.139Z,54.66
2019-06-08T06:55:50.977Z,54.76
2019-06-08T06:56:49.666Z,54.44
2019-06-08T06:57:49.675Z,54.03
2019-06-08T06:58:49.637Z,53.93
2019-06-08T06:59:49.619Z,54.03
2019-06-08T07:00:49.617Z,54.33
2019-06-08T07:01:53.643Z,54.44
2019-06-08T07:02:51.732Z,54.13
2019-06-08T07:03:50.143Z,53.93
2019-06-08T07:04:49.960Z,53.93
2019-06-08T07:05:49.985Z,54.13
2019-06-08T07:06:50.128Z,54.03
2019-06-08T07:07:50.237Z,54.44
2019-06-08T07:08:50.324Z,54.23
2019-06-08T07:09:50.496Z,54.33
2019-06-08T07:10:50.800Z,54.23
2019-06-08T07:11:50.876Z,54.13
2019-06-08T07:12:50.823Z,54.23
2019-06-08T07:13:50.800Z,54.13
2019-06-08T07:14:49.476Z,53.93
2019-06-08T07:15:53.726Z,53.72
2019-06-08T07:16:50.446Z,53.72
2019-06-08T07:17:50.107Z,54.13
2019-06-08T07:18:50.238Z,54.44
2019-06-08T07:19:50.430Z,54.13
2019-06-08T07:20:50.253Z,54.33
2019-06-08T07:21:50.306Z,54.53
2019-06-08T07:22:50.220Z,54.53
2019-06-08T07:23:50.855Z,54.31
2019-06-08T07:24:50.287Z,54.61
2019-06-08T07:25:50.442Z,54.21
2019-06-08T07:26:50.432Z,53.90
2019-06-08T07:27:50.497Z,54.21
2019-06-08T07:28:49.907Z,54.31
2019-06-08T07:29:50.510Z,53.80
2019-06-08T07:30:50.633Z,54.11
2019-06-08T07:31:50.334Z,54.21
2019-06-08T07:32:49.287Z,54.00
2019-06-08T07:33:51.510Z,53.80
2019-06-08T07:34:50.439Z,54.11
2019-06-08T07:35:49.977Z,53.88
2019-06-08T07:36:49.765Z,53.78
2019-06-08T07:37:50.575Z,54.28
2019-06-08T07:38:49.983Z,53.98
2019-06-08T07:39:50.041Z,53.88
2019-06-08T07:40:49.949Z,53.85
2019-06-08T07:41:50.217Z,52.74
2019-06-08T07:42:49.707Z,52.84
2019-06-08T07:43:49.661Z,52.14
2019-06-08T07:44:49.178Z,52.74
2019-06-08T07:45:49.858Z,52.64
2019-06-08T07:46:49.564Z,52.44
2019-06-08T07:47:49.935Z,52.64
2019-06-08T07:48:50.285Z,52.54
2019-06-08T07:49:49.338Z,52.44
2019-06-08T07:50:50.252Z,52.74
2019-06-08T07:51:58.681Z,52.64
2019-06-08T07:52:51.318Z,52.34
2019-06-08T07:53:49.853Z,52.34
2019-06-08T07:54:49.732Z,52.14
2019-06-08T07:55:50.091Z,52.44
2019-06-08T07:56:50.076Z,52.44
2019-06-08T07:57:50.444Z,52.51
2019-06-08T07:58:50.130Z,51.83
2019-06-08T07:59:50.252Z,51.93
2019-06-08T08:00:50.421Z,52.34
2019-06-08T08:01:49.866Z,52.44
2019-06-08T08:02:50.109Z,52.54
2019-06-08T08:03:49.920Z,52.44
2019-06-08T08:04:50.134Z,51.93
2019-06-08T08:05:50.280Z,52.14
2019-06-08T08:06:50.312Z,52.14
2019-06-08T08:07:50.202Z,52.54
2019-06-08T08:08:48.851Z,52.34
2019-06-08T08:09:48.880Z,52.01
2019-06-08T08:10:48.901Z,51.53
2019-06-08T08:11:48.837Z,51.73
2019-06-08T08:12:49.235Z,51.93
2019-06-08T08:13:50.162Z,52.21
2019-06-08T08:14:48.818Z,51.71
2019-06-08T08:15:49.061Z,51.81
2019-06-08T08:16:48.940Z,51.61
2019-06-08T08:17:49.080Z,51.71
2019-06-08T08:18:49.054Z,51.07
2019-06-08T08:19:48.996Z,51.18
2019-06-08T08:20:49.474Z,51.28
2019-06-08T08:21:51.896Z,49.87
2019-06-08T08:22:52.618Z,49.56
2019-06-08T08:23:50.636Z,49.44
2019-06-08T08:24:53.413Z,49.54
2019-06-08T08:25:50.447Z,49.94
2019-06-08T08:26:50.852Z,50.15
2019-06-08T08:27:50.238Z,50.95
2019-06-08T08:28:50.395Z,50.35
2019-06-08T08:29:48.984Z,50.45
2019-06-08T08:30:50.569Z,50.35
2019-06-08T08:31:50.275Z,50.12
2019-06-08T08:32:50.790Z,50.93
2019-06-08T08:33:50.083Z,50.82
2019-06-08T08:34:50.345Z,49.90
2019-06-08T08:35:50.576Z,49.49
2019-06-08T08:36:50.585Z,47.47
2019-06-08T08:37:53.634Z,47.27
2019-06-08T08:38:51.551Z,47.07
2019-06-08T08:39:50.118Z,47.38
2019-06-08T08:40:50.095Z,47.17
2019-06-08T08:41:53.623Z,47.27
2019-06-08T08:42:50.617Z,46.77
2019-06-08T08:43:51.308Z,46.97
2019-06-08T08:44:49.820Z,47.07
2019-06-08T08:45:49.693Z,46.67
2019-06-08T08:46:50.066Z,46.87
2019-06-08T08:47:48.587Z,46.29
2019-06-08T08:48:48.676Z,46.79
2019-06-08T08:49:48.408Z,47.40
2019-06-08T08:50:48.461Z,46.79
2019-06-08T08:51:48.391Z,46.39
2019-06-08T08:52:48.373Z,46.21
2019-06-08T08:53:53.851Z,45.50
2019-06-08T08:54:50.755Z,46.11
2019-06-08T08:55:48.381Z,45.90
2019-06-08T08:56:52.197Z,46.21
2019-06-08T08:57:50.716Z,46.19
2019-06-08T08:58:48.334Z,45.78
2019-06-08T08:59:51.818Z,46.69
2019-06-08T09:00:50.930Z,44.78
2019-06-08T09:01:48.388Z,43.77
2019-06-08T09:02:50.196Z,44.07
2019-06-08T09:03:51.854Z,42.86
2019-06-08T09:04:50.623Z,43.06
2019-06-08T09:05:48.422Z,42.25
2019-06-08T09:06:48.419Z,42.76
2019-06-08T09:07:48.393Z,42.64
2019-06-08T09:08:48.500Z,42.33
2019-06-08T09:09:48.349Z,43.85
2019-06-08T09:10:48.207Z,42.84
2019-06-08T09:11:48.549Z,44.53
2019-06-08T09:12:48.656Z,43.82
2019-06-08T09:13:48.803Z,42.41
2019-06-08T09:14:48.315Z,42.21
2019-06-08T09:15:48.218Z,41.81
2019-06-08T09:16:48.283Z,42.01
2019-06-08T09:17:48.359Z,41.91
2019-06-08T09:18:48.109Z,41.71
2019-06-08T09:19:48.228Z,42.72
2019-06-08T09:20:48.076Z,42.01
2019-06-08T09:21:48.276Z,41.99
2019-06-08T09:22:56.560Z,41.59
2019-06-08T09:23:49.022Z,42.40
2019-06-08T09:24:48.586Z,43.10
2019-06-08T09:25:48.464Z,42.19
2019-06-08T09:26:48.017Z,41.97
2019-06-08T09:27:48.411Z,41.87
2019-06-08T09:28:47.988Z,41.47
2019-06-08T09:29:48.300Z,42.58
2019-06-08T09:30:48.390Z,41.06
2019-06-08T09:31:49.091Z,40.66
2019-06-08T09:32:48.031Z,40.56
2019-06-08T09:33:55.158Z,40.18
2019-06-08T09:34:48.919Z,40.38
2019-06-08T09:35:48.106Z,41.39
2019-06-08T09:36:48.285Z,39.98
2019-06-08T09:37:48.611Z,39.07
2019-06-08T09:38:48.006Z,39.70
2019-06-08T09:39:48.339Z,40.40
2019-06-08T09:40:48.919Z,40.10
2019-06-08T09:41:48.083Z,40.58
2019-06-08T09:42:47.827Z,41.39
2019-06-08T09:43:48.699Z,41.17
2019-06-08T09:44:48.383Z,40.06
2019-06-08T09:45:48.416Z,39.74
2019-06-08T09:46:48.173Z,40.14
2019-06-08T09:47:47.949Z,39.14
2019-06-08T09:48:48.664Z,39.01
2019-06-08T09:49:48.091Z,39.12
2019-06-08T09:50:48.668Z,38.81
2019-06-08T09:51:48.627Z,38.81
2019-06-08T09:52:48.001Z,39.12
2019-06-08T09:53:47.779Z,39.52
2019-06-08T09:54:48.143Z,38.31
2019-06-08T09:55:48.288Z,38.71
2019-06-08T09:56:47.936Z,39.42
2019-06-08T09:57:48.500Z,38.51
2019-06-08T09:58:48.813Z,38.29
2019-06-08T09:59:48.265Z,38.21
2019-06-08T10:00:48.641Z,38.51
2019-06-08T10:01:47.623Z,38.81
2019-06-08T10:02:47.931Z,38.71
2019-06-08T10:03:48.213Z,39.32
2019-06-08T10:04:48.412Z,39.62
2019-06-08T10:05:48.390Z,39.82
2019-06-08T10:06:48.050Z,39.42
2019-06-08T10:07:48.753Z,39.42
2019-06-08T10:08:48.074Z,39.30
2019-06-08T10:09:49.998Z,39.40
2019-06-08T10:10:48.372Z,38.70
2019-06-08T10:11:47.518Z,39.20
2019-06-08T10:12:48.433Z,38.90
2019-06-08T10:13:47.919Z,39.18
2019-06-08T10:14:49.010Z,38.88
2019-06-08T10:15:51.161Z,38.07
2019-06-08T10:16:47.848Z,39.18
2019-06-08T10:17:47.731Z,38.26
2019-06-08T10:18:51.109Z,38.96
2019-06-08T10:19:47.719Z,38.56
2019-06-08T10:20:48.191Z,37.63
2019-06-08T10:21:48.184Z,37.54
2019-06-08T10:22:50.016Z,37.44
2019-06-08T10:23:48.376Z,37.74
2019-06-08T10:24:49.001Z,37.32
2019-06-08T10:25:48.149Z,37.22
2019-06-08T10:26:47.875Z,37.12
2019-06-08T10:27:47.333Z,36.52
2019-06-08T10:28:48.244Z,36.52
2019-06-08T10:29:48.363Z,36.92
2019-06-08T10:30:48.520Z,36.50
2019-06-08T10:31:48.348Z,36.72
2019-06-08T10:32:47.983Z,37.22
2019-06-08T10:33:48.202Z,36.11
2019-06-08T10:34:48.090Z,36.02
2019-06-08T10:35:48.023Z,36.11
2019-06-08T10:36:47.250Z,35.41
2019-06-08T10:37:47.866Z,35.83
2019-06-08T10:38:47.969Z,35.93
2019-06-08T10:39:47.848Z,36.54
2019-06-08T10:40:48.243Z,36.63
2019-06-08T10:41:48.868Z,36.93
2019-06-08T10:42:48.296Z,37.76
2019-06-08T10:43:48.179Z,37.55
2019-06-08T10:44:47.126Z,37.77
2019-06-08T10:45:48.280Z,37.87
2019-06-08T10:46:48.248Z,37.37
2019-06-08T10:47:47.911Z,37.26
2019-06-08T10:48:48.652Z,36.35
2019-06-08T10:49:48.941Z,35.75
2019-06-08T10:50:47.489Z,36.05
2019-06-08T10:51:48.737Z,36.03
2019-06-08T10:52:47.050Z,35.83
2019-06-08T10:53:52.601Z,36.13
2019-06-08T10:54:48.015Z,36.43
2019-06-08T10:55:48.199Z,35.13
2019-06-08T10:56:48.597Z,35.31
2019-06-08T10:57:47.766Z,35.51
2019-06-08T10:58:49.428Z,35.82
2019-06-08T10:59:48.621Z,34.83
2019-06-08T11:00:48.111Z,35.44
2019-06-08T11:01:46.960Z,35.75
2019-06-08T11:02:48.877Z,36.45
2019-06-08T11:03:48.942Z,36.15
2019-06-08T11:04:48.381Z,35.25
2019-06-08T11:05:48.299Z,35.44
2019-06-08T11:06:47.846Z,35.64
2019-06-08T11:07:48.010Z,35.66
2019-06-08T11:08:46.856Z,35.97
2019-06-08T11:09:48.153Z,35.46
2019-06-08T11:10:47.493Z,36.47
2019-06-08T11:11:48.069Z,35.75
2019-06-08T11:12:48.538Z,35.55
2019-06-08T11:13:50.101Z,35.55
2019-06-08T11:14:48.137Z,35.25
2019-06-08T11:15:48.093Z,35.05
2019-06-08T11:16:47.579Z,35.35
2019-06-08T11:17:46.774Z,35.55
2019-06-08T11:18:50.830Z,35.35
2019-06-08T11:19:48.016Z,34.73
2019-06-08T11:20:47.901Z,34.83
2019-06-08T11:21:48.214Z,35.25
2019-06-08T11:22:49.872Z,35.35
2019-06-08T11:24:04.493Z,35.85
2019-06-08T11:24:48.543Z,36.13
2019-06-08T11:25:48.790Z,35.23
2019-06-08T11:26:47.843Z,35.23
2019-06-08T11:27:47.524Z,35.44
2019-06-08T11:29:38.328Z,35.05
2019-06-08T11:30:38.279Z,35.25
2019-06-08T11:31:39.028Z,34.83
2019-06-08T11:32:38.350Z,35.03
2019-06-08T11:33:38.778Z,33.62
2019-06-08T11:34:37.717Z,33.31
2019-06-08T11:35:38.370Z,34.11
2019-06-08T11:36:39.070Z,32.70
2019-06-08T11:37:38.752Z,33.00
2019-06-08T11:38:38.238Z,33.19
2019-06-08T11:39:38.182Z,31.90
2019-06-08T11:40:37.888Z,33.00
2019-06-08T11:41:36.284Z,32.00
2019-06-08T11:42:38.643Z,32.00
2019-06-08T11:43:38.111Z,31.90
2019-06-08T11:44:38.770Z,31.80
2019-06-08T11:45:37.961Z,33.51
2019-06-08T11:46:38.376Z,32.42
2019-06-08T11:47:38.931Z,32.93
2019-06-08T11:48:39.287Z,32.93
2019-06-08T11:49:37.214Z,33.14
2019-06-08T11:50:41.454Z,33.65
2019-06-08T11:51:37.840Z,34.04
2019-06-08T11:52:38.255Z,33.36
2019-06-08T11:53:38.477Z,33.55
2019-06-08T11:54:38.031Z,33.95
2019-06-08T11:55:38.358Z,34.56
2019-06-08T11:56:39.976Z,33.94
2019-06-08T11:57:37.393Z,34.44
2019-06-08T11:58:38.162Z,36.05
2019-06-08T11:59:37.540Z,35.44
2019-06-08T12:00:37.895Z,35.14
2019-06-08T12:01:36.064Z,33.14
2019-06-08T12:02:38.783Z,33.64
2019-06-08T12:03:38.754Z,34.24
2019-06-08T12:04:38.263Z,33.54
2019-06-08T12:05:36.054Z,33.64
2019-06-08T12:06:37.737Z,34.16
2019-06-08T12:07:38.072Z,34.44
2019-06-08T12:08:38.030Z,33.74
2019-06-08T12:09:36.017Z,33.04
2019-06-08T12:10:38.205Z,33.74
2019-06-08T12:11:38.287Z,32.53
2019-06-08T12:12:38.344Z,32.84
2019-06-08T12:13:35.966Z,32.64
2019-06-08T12:14:37.651Z,33.04
2019-06-08T12:15:38.452Z,32.43
2019-06-08T12:16:37.828Z,33.74
2019-06-08T12:17:35.928Z,33.12
2019-06-08T12:18:40.045Z,33.72
2019-06-08T12:19:37.751Z,34.02
2019-06-08T12:20:37.689Z,33.83
2019-06-08T12:21:35.867Z,34.41
2019-06-08T12:22:37.670Z,34.51
2019-06-08T12:23:35.827Z,33.31
2019-06-08T12:24:41.981Z,33.31
2019-06-08T12:25:37.847Z,32.90
2019-06-08T12:26:35.855Z,33.51
2019-06-08T12:27:37.264Z,34.61
2019-06-08T12:28:38.056Z,35.91
2019-06-08T12:29:35.767Z,36.41
2019-06-08T12:30:35.747Z,34.80
2019-06-08T12:31:37.759Z,35.19
2019-06-08T12:32:35.737Z,33.69
2019-06-08T12:33:35.731Z,32.67
2019-06-08T12:34:38.212Z,32.97
2019-06-08T12:35:35.724Z,32.27
2019-06-08T12:36:37.564Z,32.67
2019-06-08T12:37:35.678Z,31.97
2019-06-08T12:38:37.929Z,32.79
2019-06-08T12:39:35.649Z,32.39
2019-06-08T12:40:38.318Z,33.69
2019-06-08T12:41:37.737Z,34.80
2019-06-08T12:42:38.004Z,34.69
2019-06-08T12:43:35.614Z,34.48
2019-06-08T12:44:38.104Z,33.28
2019-06-08T12:45:37.985Z,33.07
2019-06-08T12:46:40.855Z,33.87
2019-06-08T12:47:38.168Z,33.67
2019-06-08T12:48:35.559Z,33.47
2019-06-08T12:49:38.183Z,33.67
2019-06-08T12:50:35.600Z,34.08
2019-06-08T12:51:35.608Z,34.46
2019-06-08T12:52:35.509Z,32.56
2019-06-08T12:53:35.500Z,32.56